Veradale, WA (99037)

5:52 AM PST on January 29, 2015 (GMT -0800)
Morningside | Change Station
CLOSE
Current Station
Personal Weather Station
Location: Greenacres, WA
Elevation: 2337 ft
Nearby Weather Stations

Elev 2337 ft 47.63 °N, 117.17 °W | Updated 2 seconds ago

Overcast
Overcast
32.9 °F
Feels Like 33 °F
N
0.0
Wind Variable Wind from North
Gusts 0.0 mph

Today
High -- | Low -- °F
--% Chance of Precip.
Yesterday
High -- | Low -- °F
Precip. -- in
7:19 AM 4:45 PM
Waxing Gibbous, 74% visible
Pressure 30.50 in
Visibility 10.0 miles
Clouds Overcast 500 ft
Windchill 33 °F
Dew Point 20 °F
Humidity 59%
Rainfall 0.00 in
Snow Depth Not available.
UV 0 out of 12
Pollen .10 out of 12
Air Quality Not available.
Flu Activity Not available.
METAR KSFF 291253Z AUTO 00000KT 10SM OVC005 01/M01 A3045 RMK AO2 SLP326 T00061006

More Conditions Fewer Conditions

Pressure 30.50 in
Visibility 10.0 miles
Clouds Overcast 500 ft
Windchill 33 °F
Dew Point 20 °F
Humidity 59%
Rainfall 0.00 in
Snow Depth Not available.
UV 0 out of 12
Pollen .10 out of 12
Air Quality Not available.
Flu Activity Not available.
METAR KSFF 291253Z AUTO 00000KT 10SM OVC005 01/M01 A3045 RMK AO2 SLP326 T00061006

More Conditions Fewer Conditions

Nowcast | as of 11:55 PM PST on January 28, 2015

Areas of fog will continue to impact many valley locations of northeast Washington and the northern Idaho Panhandle overnight. The fog is expected to be dense at times with temperatures near or just below freezing. The moisture from the fog combined with the cool temperatures will likely lead to some slick roadways. This will be especially true on lesser traveled secondary roads. Motorists can also expect rapid fluctuations in visibility down to a quarter of a mile in places including on i90 from Ritzville east to the Idaho-Montana border.

×

10-Day Weather Forecast

Almanac

Astronomy

Jan. 29, 2015 Rise Set
Actual Time
Civil Twilight
Nautical Twilight
Astronomical Twilight
Moon
Length of Visible Light
Length of Day
Tomorrow will be .
, % of the Moon is Illuminated

Today's Extremes

State Highs State Lows

Community

WunderPhotos

Upload Photos

1,791,428 photos uploaded!

WunderBlogs® & News

Nearby

Air Quality

  Air Quality AQ Index Pollutant
Not available.

Snow Depth

Station Depth Elevation

Earthquake Activity

City Distance Mag. Time & Date
Minimum magnitude displayed is 2.5.

Coastal Water Temperatures

Place Temperature

Nearby Weather Stations